Terminal Aerodrome Forecast
Issued by NWS

Home | Current Version | Previous Version | Text Only | Print | Product List | Glossary On
Versions: 1 2 3 4 5 6 7 8 9 10 11 12 13 14 15
000
FTUS43 KMPX 060520
TAFRNH
TAF
KRNH 060520Z 0606/0706 14008KT P6SM VCSH OVC015
     FM061000 13011KT 6SM BR VCSH BKN007 OVC012
     FM061400 13011KT 6SM -SHRA BR SCT015 OVC025
     FM061800 14015G20KT P6SM SCT025 OVC050
     FM070000 15011KT P6SM VCSH BKN050=

USA.gov is the U.S. government's official web portal to all federal, state and local government web resources and services.